Time;durP1;ratioP1;P1;durP2;ratioP2;P2;SDS_P1;SDS_P2;PMS_P1;PMS_P2;Temp;Humidity;BMP_temperature;BMP_pressure;BME280_temperature;BME280_humidity;BME280_pressure;Samples;Min_cycle;Max_cycle;Signal;HPM_P1;HPM_P2
2022/03/06 00:02:14;;;;;;;0.00;0.00;;;;;23.20;100058.00;;;;5086543;28;20426;-79
2022/03/06 00:04:44;;;;;;;0.00;0.00;;;;;23.50;100060.00;;;;5087425;28;20131;-78
2022/03/06 00:07:13;;;;;;;0.45;0.35;;;;;23.30;100045.00;;;;5084384;28;20048;-77
2022/03/06 00:09:43;;;;;;;0.00;0.00;;;;;23.30;100059.00;;;;5086946;28;20044;-78
2022/03/06 00:12:13;;;;;;;0.00;0.00;;;;;23.30;100085.00;;;;5085343;28;20051;-77
2022/03/06 00:14:43;;;;;;;0.10;0.10;;;;;23.20;100079.00;;;;5085727;28;20050;-76
2022/03/06 00:17:12;;;;;;;0.25;0.25;;;;;23.20;100069.00;;;;5085521;28;20040;-78
2022/03/06 00:19:42;;;;;;;0.10;0.10;;;;;23.10;100068.00;;;;5084583;28;20035;-76
2022/03/06 00:22:12;;;;;;;0.00;0.00;;;;;23.00;100073.00;;;;5085104;28;20048;-76
2022/03/06 00:24:41;;;;;;;0.00;0.00;;;;;23.00;100060.00;;;;5086348;28;20044;-77
2022/03/06 00:27:11;;;;;;;0.00;0.00;;;;;23.00;100076.00;;;;5087134;28;20051;-79
2022/03/06 00:29:40;;;;;;;0.00;0.00;;;;;23.00;100068.00;;;;5086930;28;20052;-76
2022/03/06 00:32:10;;;;;;;0.00;0.00;;;;;23.00;100046.00;;;;5084915;28;20052;-76
2022/03/06 00:34:39;;;;;;;0.00;0.00;;;;;22.90;100059.00;;;;5086247;28;20553;-78
2022/03/06 00:37:09;;;;;;;0.00;0.00;;;;;22.90;100064.00;;;;5085211;28;20048;-78
2022/03/06 00:39:38;;;;;;;0.00;0.00;;;;;22.90;100074.00;;;;5084746;28;20048;-77
2022/03/06 00:42:09;;;;;;;0.00;0.00;;;;;22.90;100073.00;;;;5086435;28;20048;-78
2022/03/06 00:44:38;;;;;;;0.00;0.00;;;;;23.10;100083.00;;;;5084912;28;20495;-77
2022/03/06 00:47:08;;;;;;;0.00;0.00;;;;;23.30;100054.00;;;;5086199;28;20051;-76
2022/03/06 00:49:38;;;;;;;0.10;0.10;;;;;23.30;100068.00;;;;5086385;28;20036;-77
2022/03/06 00:52:07;;;;;;;0.00;0.00;;;;;23.30;100100.00;;;;5086147;28;20052;-77
2022/03/06 00:54:37;;;;;;;0.00;0.00;;;;;23.10;100079.00;;;;5085750;28;20047;-77
2022/03/06 00:57:07;;;;;;;0.00;0.00;;;;;23.00;100074.00;;;;5086245;28;20609;-76
2022/03/06 00:59:37;;;;;;;0.00;0.00;;;;;22.90;100043.00;;;;5086020;28;20092;-76
2022/03/06 01:02:07;;;;;;;0.17;0.10;;;;;22.80;100053.00;;;;5086013;28;20404;-76
2022/03/06 01:04:37;;;;;;;0.00;0.00;;;;;22.80;100075.00;;;;5085987;28;20525;-75
2022/03/06 01:07:07;;;;;;;0.00;0.00;;;;;22.80;100067.00;;;;5086533;28;20040;-76
2022/03/06 01:09:36;;;;;;;0.00;0.00;;;;;22.80;100076.00;;;;5086235;28;20063;-76
2022/03/06 01:12:08;;;;;;;0.00;0.00;;;;;23.00;100063.00;;;;5094409;28;20028;-75
2022/03/06 01:14:38;;;;;;;0.03;0.03;;;;;23.00;100062.00;;;;5097557;28;20115;-77
2022/03/06 01:17:08;;;;;;;0.00;0.00;;;;;22.80;100025.00;;;;5094515;28;20052;-76
2022/03/06 01:19:37;;;;;;;0.00;0.00;;;;;22.70;100023.00;;;;5099259;28;20115;-75
2022/03/06 01:22:07;;;;;;;0.00;0.00;;;;;22.60;100014.00;;;;5100345;28;20036;-76
2022/03/06 01:24:36;;;;;;;0.00;0.00;;;;;22.60;100014.00;;;;5097616;28;20031;-77
2022/03/06 01:27:06;;;;;;;0.00;0.00;;;;;22.60;100012.00;;;;5100183;28;20054;-78
2022/03/06 01:29:36;;;;;;;0.00;0.00;;;;;22.60;100010.00;;;;5095877;28;20505;-78
2022/03/06 01:32:05;;;;;;;0.00;0.00;;;;;22.60;100006.00;;;;5094771;28;20129;-77
2022/03/06 01:34:35;;;;;;;0.00;0.00;;;;;22.50;100004.00;;;;5084620;28;20078;-76
2022/03/06 01:37:04;;;;;;;0.00;0.00;;;;;22.50;100031.00;;;;5084977;28;20055;-78
2022/03/06 01:39:35;;;;;;;0.00;0.00;;;;;22.50;100021.00;;;;5102899;28;20051;-77
2022/03/06 01:42:05;;;;;;;0.00;0.00;;;;;22.50;100032.00;;;;5107962;28;20046;-75
2022/03/06 01:44:34;;;;;;;0.00;0.00;;;;;22.50;100034.00;;;;5108159;28;20051;-77
2022/03/06 01:47:04;;;;;;;0.00;0.00;;;;;22.40;100046.00;;;;5109782;28;20040;-77
2022/03/06 01:49:33;;;;;;;0.00;0.00;;;;;22.40;100029.00;;;;5109929;28;20055;-77
2022/03/06 01:52:03;;;;;;;0.00;0.00;;;;;22.50;100022.00;;;;5109379;28;20070;-77
2022/03/06 01:54:33;;;;;;;0.00;0.00;;;;;22.40;100032.00;;;;5107596;28;20044;-76
2022/03/06 01:57:03;;;;;;;0.00;0.00;;;;;22.40;100024.00;;;;5107982;28;20051;-77
2022/03/06 01:59:32;;;;;;;0.00;0.00;;;;;22.40;100041.00;;;;5108427;28;20066;-76
2022/03/06 02:02:02;;;;;;;0.00;0.00;;;;;22.40;100019.00;;;;5108826;28;20045;-77
2022/03/06 02:04:31;;;;;;;0.00;0.00;;;;;22.30;100038.00;;;;5109554;28;20062;-77
2022/03/06 02:07:01;;;;;;;0.00;0.00;;;;;22.30;100038.00;;;;5108849;28;20043;-76
2022/03/06 02:09:30;;;;;;;0.00;0.00;;;;;22.30;100031.00;;;;5107891;28;20052;-76
2022/03/06 02:14:52;;;;;;;0.00;0.00;;;;;22.30;100025.00;;;;5108855;28;20035;-78
2022/03/06 02:17:23;;;;;;;0.00;0.00;;;;;22.30;100018.00;;;;5109669;28;20066;-77
2022/03/06 02:19:52;;;;;;;0.00;0.00;;;;;22.20;100024.00;;;;5108952;28;20105;-76
2022/03/06 02:22:28;;;;;;;0.00;0.00;;;;;22.30;100036.00;;;;5109543;28;20040;-77
2022/03/06 02:25:00;;;;;;;0.00;0.00;;;;;22.30;100014.00;;;;5107277;28;20081;-77
2022/03/06 02:27:30;;;;;;;0.00;0.00;;;;;22.30;100019.00;;;;5108804;28;20058;-78
2022/03/06 02:29:59;;;;;;;0.00;0.00;;;;;22.30;100016.00;;;;5108413;28;20494;-76
2022/03/06 02:32:29;;;;;;;0.08;0.08;;;;;22.40;100022.00;;;;5108301;28;20407;-75
2022/03/06 02:34:58;;;;;;;0.00;0.00;;;;;22.30;100028.00;;;;5108653;28;20412;-76
2022/03/06 02:37:28;;;;;;;0.00;0.00;;;;;22.30;100018.00;;;;5109039;28;20051;-77
2022/03/06 02:40:00;;;;;;;0.00;0.00;;;;;22.30;100014.00;;;;5108330;28;20043;-77
2022/03/06 02:42:33;;;;;;;0.00;0.00;;;;;22.30;100025.00;;;;5108701;28;20058;-75
2022/03/06 02:45:13;;;;;;;0.00;0.00;;;;;22.30;100028.00;;;;5108703;28;20043;-75
2022/03/06 02:47:44;;;;;;;0.00;0.00;;;;;22.40;100038.00;;;;5107271;28;20048;-78
2022/03/06 02:50:20;;;;;;;0.00;0.00;;;;;22.40;100047.00;;;;5108646;28;20046;-77
2022/03/06 02:52:52;;;;;;;0.00;0.00;;;;;22.40;100037.00;;;;5108264;28;20052;-76
2022/03/06 02:55:23;;;;;;;0.00;0.00;;;;;22.40;100054.00;;;;5108018;28;20105;-77
2022/03/06 02:57:53;;;;;;;0.00;0.00;;;;;22.50;100037.00;;;;5108550;28;20052;-77
2022/03/06 03:00:25;;;;;;;0.00;0.00;;;;;22.50;100059.00;;;;5107431;28;20062;-77
2022/03/06 03:02:55;;;;;;;0.00;0.00;;;;;22.50;100079.00;;;;5107638;28;20043;-76
2022/03/06 03:05:26;;;;;;;0.00;0.00;;;;;22.50;100043.00;;;;5107712;28;20104;-76
2022/03/06 03:07:56;;;;;;;0.00;0.00;;;;;22.50;100039.00;;;;5108203;28;20039;-77
2022/03/06 03:10:26;;;;;;;0.00;0.00;;;;;22.50;100038.00;;;;5107964;28;20055;-77
2022/03/06 03:12:56;;;;;;;0.00;0.00;;;;;22.50;100063.00;;;;5107817;28;20132;-76
2022/03/06 03:15:26;;;;;;;0.00;0.00;;;;;22.50;100051.00;;;;5107374;28;20427;-77
2022/03/06 03:17:56;;;;;;;0.00;0.00;;;;;22.50;100060.00;;;;5107593;28;20047;-77
2022/03/06 03:20:25;;;;;;;0.00;0.00;;;;;22.50;100076.00;;;;5106032;28;20775;-76
2022/03/06 03:22:54;;;;;;;0.00;0.00;;;;;22.60;100079.00;;;;5107333;28;20039;-76
2022/03/06 03:25:24;;;;;;;0.00;0.00;;;;;22.60;100096.00;;;;5106231;28;20419;-77
2022/03/06 03:27:54;;;;;;;0.00;0.00;;;;;22.80;100116.00;;;;5106170;28;20047;-78
2022/03/06 03:30:23;;;;;;;0.00;0.00;;;;;23.00;100095.00;;;;5107470;28;20055;-75
2022/03/06 03:32:53;;;;;;;0.00;0.00;;;;;23.30;100122.00;;;;5106663;28;20043;-77
2022/03/06 03:35:22;;;;;;;0.00;0.00;;;;;23.40;100103.00;;;;5107579;28;20563;-77
2022/03/06 03:37:51;;;;;;;0.00;0.00;;;;;23.40;100125.00;;;;5107248;28;20047;-76
2022/03/06 03:40:21;;;;;;;0.00;0.00;;;;;23.50;100134.00;;;;5107089;28;20061;-78
2022/03/06 03:42:50;;;;;;;0.00;0.00;;;;;23.30;100120.00;;;;5108294;28;20467;-76
2022/03/06 03:45:19;;;;;;;0.00;0.00;;;;;23.30;100109.00;;;;5105859;28;20044;-76
2022/03/06 03:47:49;;;;;;;0.00;0.00;;;;;23.30;100097.00;;;;5107214;28;20526;-76
2022/03/06 03:50:18;;;;;;;0.00;0.00;;;;;23.30;100094.00;;;;5106381;28;20043;-76
2022/03/06 03:52:48;;;;;;;0.00;0.00;;;;;23.20;100104.00;;;;5107158;28;20052;-77
2022/03/06 03:55:18;;;;;;;0.10;0.10;;;;;23.00;100103.00;;;;5105581;28;20525;-78
2022/03/06 03:57:48;;;;;;;0.00;0.00;;;;;22.90;100096.00;;;;5107724;28;20035;-77
2022/03/06 04:00:17;;;;;;;0.00;0.00;;;;;22.90;100099.00;;;;5106999;28;20040;-78
2022/03/06 04:02:46;;;;;;;0.00;0.00;;;;;22.80;100111.00;;;;5105935;28;20040;-76
2022/03/06 04:05:16;;;;;;;0.00;0.00;;;;;22.80;100118.00;;;;5106824;28;20044;-76
2022/03/06 04:07:46;;;;;;;0.00;0.00;;;;;22.80;100113.00;;;;5106415;28;20039;-77
2022/03/06 04:10:15;;;;;;;0.00;0.00;;;;;22.90;100115.00;;;;5106768;28;20417;-76
2022/03/06 04:12:45;;;;;;;0.00;0.00;;;;;22.90;100117.00;;;;5106603;28;20084;-77
2022/03/06 04:15:14;;;;;;;0.00;0.00;;;;;22.80;100105.00;;;;5106689;28;20043;-76
2022/03/06 04:17:44;;;;;;;0.00;0.00;;;;;22.90;100096.00;;;;5107089;28;20481;-77
2022/03/06 04:20:13;;;;;;;0.00;0.00;;;;;22.80;100073.00;;;;5106830;28;20134;-77
2022/03/06 04:22:43;;;;;;;0.00;0.00;;;;;22.80;100063.00;;;;5106475;28;20043;-77
2022/03/06 04:25:12;;;;;;;0.00;0.00;;;;;22.80;100057.00;;;;5106975;28;20093;-79
2022/03/06 04:27:42;;;;;;;0.00;0.00;;;;;22.80;100050.00;;;;5105143;28;20516;-77
2022/03/06 04:30:11;;;;;;;0.00;0.00;;;;;22.80;100025.00;;;;5106535;28;20506;-77
2022/03/06 04:32:41;;;;;;;0.10;0.10;;;;;22.80;100013.00;;;;5106383;28;20044;-76
2022/03/06 04:35:11;;;;;;;0.00;0.00;;;;;22.80;100026.00;;;;5106301;28;20122;-77
2022/03/06 04:37:41;;;;;;;0.00;0.00;;;;;22.80;100007.00;;;;5104632;28;20082;-75
2022/03/06 04:40:11;;;;;;;0.00;0.00;;;;;22.70;100010.00;;;;5104847;28;20105;-76
2022/03/06 04:42:41;;;;;;;0.00;0.00;;;;;22.70;99982.00;;;;5105096;28;20151;-77
2022/03/06 04:45:11;;;;;;;0.00;0.00;;;;;22.70;99994.00;;;;5106498;28;20039;-78
2022/03/06 04:47:40;;;;;;;0.00;0.00;;;;;22.70;99990.00;;;;5106603;28;20040;-76
2022/03/06 04:50:10;;;;;;;0.00;0.00;;;;;22.70;100000.00;;;;5106511;28;20121;-76
2022/03/06 04:52:40;;;;;;;0.00;0.00;;;;;22.70;100002.00;;;;5107863;28;20096;-77
2022/03/06 04:55:09;;;;;;;0.00;0.00;;;;;22.60;100000.00;;;;5110666;28;20040;-77
2022/03/06 04:57:38;;;;;;;0.00;0.00;;;;;22.80;99991.00;;;;5110840;28;20039;-77
2022/03/06 05:00:09;;;;;;;0.00;0.00;;;;;22.80;99984.00;;;;5110827;28;20520;-78
2022/03/06 05:02:38;;;;;;;0.00;0.00;;;;;22.70;99985.00;;;;5110257;28;20036;-76
2022/03/06 05:05:09;;;;;;;0.00;0.00;;;;;22.70;100013.00;;;;5110441;28;20130;-78
2022/03/06 05:07:39;;;;;;;0.00;0.00;;;;;22.60;100017.00;;;;5109564;28;20834;-77
2022/03/06 05:10:12;;;;;;;0.00;0.00;;;;;22.60;100013.00;;;;5110227;28;20513;-76
2022/03/06 05:12:43;;;;;;;0.00;0.00;;;;;22.50;100000.00;;;;5110105;28;20048;-77
2022/03/06 05:15:14;;;;;;;0.00;0.00;;;;;22.50;99998.00;;;;5110197;28;20044;-76
2022/03/06 05:17:43;;;;;;;0.00;0.00;;;;;22.50;100009.00;;;;5109848;28;20047;-76
2022/03/06 05:20:14;;;;;;;0.00;0.00;;;;;22.40;100018.00;;;;5109822;28;20066;-76
2022/03/06 05:22:44;;;;;;;0.00;0.00;;;;;22.40;100000.00;;;;5110244;28;20044;-76
2022/03/06 05:25:14;;;;;;;0.00;0.00;;;;;22.40;99996.00;;;;5091717;28;20062;-78
2022/03/06 05:27:43;;;;;;;0.00;0.00;;;;;22.30;99973.00;;;;5109618;28;20452;-77
2022/03/06 05:30:14;;;;;;;0.00;0.00;;;;;22.30;99978.00;;;;5109428;28;20063;-76
2022/03/06 05:32:44;;;;;;;0.00;0.00;;;;;22.30;99976.00;;;;5110600;28;20237;-76
2022/03/06 05:35:14;;;;;;;0.00;0.00;;;;;22.30;99981.00;;;;5108831;28;20512;-76
2022/03/06 05:37:44;;;;;;;;;;;;;22.20;99992.00;;;;5110191;28;20778;-77
2022/03/06 05:40:13;;;;;;;0.00;0.00;;;;;22.20;99986.00;;;;5108333;28;19923;-77
2022/03/06 05:42:48;;;;;;;0.00;0.00;;;;;22.20;99982.00;;;;5109820;28;20085;-78
2022/03/06 05:45:18;;;;;;;0.00;0.00;;;;;22.20;99990.00;;;;5109141;28;20046;-78
2022/03/06 05:47:47;;;;;;;0.00;0.00;;;;;22.20;99969.00;;;;5109757;28;20114;-78
2022/03/06 05:50:17;;;;;;;0.00;0.00;;;;;22.10;99975.00;;;;5109527;28;20054;-75
2022/03/06 05:52:48;;;;;;;0.00;0.00;;;;;22.10;99979.00;;;;5109490;28;20039;-77
2022/03/06 05:55:18;;;;;;;0.00;0.00;;;;;22.10;99974.00;;;;5109560;28;20040;-77
2022/03/06 05:57:48;;;;;;;0.00;0.00;;;;;22.00;99985.00;;;;5110081;28;20050;-77
2022/03/06 06:00:18;;;;;;;0.00;0.00;;;;;22.00;99987.00;;;;5108095;28;20052;-76
2022/03/06 06:02:47;;;;;;;0.00;0.00;;;;;22.00;99965.00;;;;5108555;28;20035;-77
2022/03/06 06:05:16;;;;;;;0.00;0.00;;;;;21.90;99976.00;;;;5109232;28;20043;-77
2022/03/06 06:07:47;;;;;;;0.00;0.00;;;;;21.90;99974.00;;;;5109267;27;20502;-77
2022/03/06 06:10:16;;;;;;;0.00;0.00;;;;;21.90;99976.00;;;;5107809;28;20071;-76
2022/03/06 06:12:46;;;;;;;0.00;0.00;;;;;21.90;99959.00;;;;5107674;28;20051;-76
2022/03/06 06:15:16;;;;;;;0.00;0.00;;;;;22.00;99964.00;;;;5109018;28;20047;-78
2022/03/06 06:17:46;;;;;;;0.00;0.00;;;;;22.00;99967.00;;;;5109133;28;20057;-76
2022/03/06 06:20:15;;;;;;;1.33;1.23;;;;;22.00;99966.00;;;;5109053;28;20074;-77
2022/03/06 06:22:45;;;;;;;0.00;0.00;;;;;22.00;99944.00;;;;5109461;28;20506;-77
2022/03/06 06:25:16;;;;;;;0.00;0.00;;;;;22.00;99963.00;;;;5105150;28;20406;-76
2022/03/06 06:27:45;;;;;;;0.00;0.00;;;;;22.00;99965.00;;;;5105903;28;20126;-77
2022/03/06 06:30:15;;;;;;;0.00;0.00;;;;;22.10;99941.00;;;;5105223;28;20071;-77
2022/03/06 06:32:44;;;;;;;0.00;0.00;;;;;22.10;99966.00;;;;5108285;28;20051;-76
2022/03/06 06:35:14;;;;;;;0.00;0.00;;;;;22.10;99964.00;;;;5108456;28;20075;-77
2022/03/06 06:37:45;;;;;;;0.00;0.00;;;;;22.10;99960.00;;;;5108788;28;20066;-76
2022/03/06 06:40:15;;;;;;;0.00;0.00;;;;;22.10;99962.00;;;;5108449;28;20390;-77
2022/03/06 06:42:45;;;;;;;0.00;0.00;;;;;22.10;99962.00;;;;5108774;28;20118;-76
2022/03/06 06:45:15;;;;;;;0.00;0.00;;;;;22.00;99953.00;;;;5107875;28;20075;-76
2022/03/06 06:47:44;;;;;;;0.00;0.00;;;;;22.00;99959.00;;;;5091126;28;20047;-77
2022/03/06 06:50:14;;;;;;;0.00;0.00;;;;;22.00;99968.00;;;;5107087;28;20044;-75
2022/03/06 06:52:44;;;;;;;0.00;0.00;;;;;22.00;99957.00;;;;5108518;27;20050;-76
2022/03/06 06:55:13;;;;;;;0.00;0.00;;;;;22.00;99946.00;;;;5108479;28;20039;-76
2022/03/06 06:57:42;;;;;;;0.00;0.00;;;;;22.00;99954.00;;;;5107985;28;20077;-77
2022/03/06 07:00:12;;;;;;;0.00;0.00;;;;;22.00;99933.00;;;;5108121;28;20050;-76
2022/03/06 07:02:42;;;;;;;0.00;0.00;;;;;22.00;99941.00;;;;5108061;28;20504;-76
2022/03/06 07:05:12;;;;;;;0.10;0.10;;;;;22.00;99927.00;;;;5108872;28;20031;-76
2022/03/06 07:07:41;;;;;;;0.00;0.00;;;;;22.00;99912.00;;;;5108465;28;20039;-75
2022/03/06 07:10:11;;;;;;;0.00;0.00;;;;;22.00;99915.00;;;;5107869;28;20135;-77
2022/03/06 07:12:47;;;;;;;0.20;0.20;;;;;22.00;99917.00;;;;5108445;28;20058;-75
2022/03/06 07:15:17;;;;;;;0.00;0.00;;;;;22.00;99913.00;;;;5107035;28;20039;-77
2022/03/06 07:17:47;;;;;;;0.00;0.00;;;;;22.00;99920.00;;;;5106974;28;20130;-76
2022/03/06 07:20:17;;;;;;;0.00;0.00;;;;;22.00;99914.00;;;;5108348;28;20521;-77
2022/03/06 07:22:46;;;;;;;0.00;0.00;;;;;22.00;99908.00;;;;5105985;28;20055;-77
2022/03/06 07:25:16;;;;;;;0.00;0.00;;;;;22.00;99912.00;;;;5107238;28;20063;-75
2022/03/06 07:27:45;;;;;;;0.00;0.00;;;;;22.00;99917.00;;;;5108387;28;20054;-76
2022/03/06 07:30:15;;;;;;;0.00;0.00;;;;;22.00;99898.00;;;;5108494;28;20096;-77
2022/03/06 07:32:47;;;;;;;0.00;0.00;;;;;22.00;99897.00;;;;5107898;28;20516;-76
2022/03/06 07:35:19;;;;;;;0.00;0.00;;;;;22.00;99901.00;;;;5107275;28;20046;-75
2022/03/06 07:37:49;;;;;;;0.00;0.00;;;;;22.00;99912.00;;;;5106567;28;20050;-75
2022/03/06 07:40:20;;;;;;;0.00;0.00;;;;;22.00;99916.00;;;;5106406;28;20055;-77
2022/03/06 07:42:53;;;;;;;0.00;0.00;;;;;21.90;99904.00;;;;5107844;28;20036;-75
2022/03/06 07:45:23;;;;;;;0.00;0.00;;;;;22.00;99918.00;;;;5107777;28;20043;-77
2022/03/06 07:47:54;;;;;;;0.00;0.00;;;;;21.90;99896.00;;;;5107037;28;20039;-77
2022/03/06 07:50:24;;;;;;;0.00;0.00;;;;;21.90;99906.00;;;;5107777;28;20035;-77
2022/03/06 07:52:56;;;;;;;0.00;0.00;;;;;21.90;99896.00;;;;5108011;28;20055;-76
2022/03/06 07:55:26;;;;;;;0.00;0.00;;;;;21.90;99913.00;;;;5107721;28;20051;-76
2022/03/06 07:57:56;;;;;;;0.00;0.00;;;;;21.90;99912.00;;;;5105485;28;21038;-76
2022/03/06 08:00:25;;;;;;;0.00;0.00;;;;;21.90;99903.00;;;;5107602;28;20050;-77
2022/03/06 08:02:56;;;;;;;0.00;0.00;;;;;21.90;99906.00;;;;5107194;28;20051;-78
2022/03/06 08:05:26;;;;;;;0.00;0.00;;;;;21.90;99929.00;;;;5107133;28;20051;-75
2022/03/06 08:07:56;;;;;;;0.00;0.00;;;;;21.90;99907.00;;;;5107213;28;20114;-76
2022/03/06 08:10:25;;;;;;;0.00;0.00;;;;;21.90;99911.00;;;;5107054;28;20112;-76
2022/03/06 08:12:55;;;;;;;0.00;0.00;;;;;21.80;99917.00;;;;5089226;28;20059;-76
2022/03/06 08:15:25;;;;;;;0.00;0.00;;;;;21.80;99917.00;;;;5107153;28;20532;-76
2022/03/06 08:17:54;;;;;;;0.00;0.00;;;;;21.80;99918.00;;;;5107552;28;20069;-76
2022/03/06 08:20:24;;;;;;;0.00;0.00;;;;;21.80;99922.00;;;;5107116;28;20050;-76
2022/03/06 08:22:53;;;;;;;0.00;0.00;;;;;21.80;99923.00;;;;5105870;28;20127;-76
2022/03/06 08:25:22;;;;;;;0.00;0.00;;;;;21.80;99925.00;;;;5105997;28;20563;-76
2022/03/06 08:27:52;;;;;;;2.33;0.45;;;;;21.70;99919.00;;;;5105373;28;20046;-76
2022/03/06 08:30:21;;;;;;;0.00;0.00;;;;;21.70;99910.00;;;;5105650;28;20053;-76
2022/03/06 08:32:51;;;;;;;0.00;0.00;;;;;21.70;99913.00;;;;5106387;28;20502;-75
2022/03/06 08:35:20;;;;;;;0.00;0.00;;;;;21.70;99925.00;;;;5106925;28;20134;-76
2022/03/06 08:37:50;;;;;;;0.10;0.10;;;;;21.70;99918.00;;;;5106796;28;20122;-75
2022/03/06 08:40:19;;;;;;;0.00;0.00;;;;;21.70;99943.00;;;;5107216;28;20449;-76
2022/03/06 08:42:49;;;;;;;0.00;0.00;;;;;21.70;99937.00;;;;5106284;28;20054;-76
2022/03/06 08:45:25;;;;;;;0.00;0.00;;;;;21.70;99943.00;;;;5130485;28;20034;-76
2022/03/06 08:47:54;;;;;;;0.00;0.00;;;;;21.70;99943.00;;;;5133162;28;20028;-77
2022/03/06 08:50:24;;;;;;;0.00;0.00;;;;;21.60;99938.00;;;;5132778;28;20081;-77
2022/03/06 08:52:54;;;;;;;0.00;0.00;;;;;21.70;99944.00;;;;5132399;28;20028;-77
2022/03/06 08:55:24;;;;;;;0.00;0.00;;;;;21.60;99942.00;;;;5132965;28;20039;-76
2022/03/06 08:57:53;;;;;;;0.00;0.00;;;;;21.70;99962.00;;;;5132836;28;20027;-76
2022/03/06 09:00:22;;;;;;;0.00;0.00;;;;;21.60;99951.00;;;;5115472;28;20047;-75
2022/03/06 09:02:52;;;;;;;0.00;0.00;;;;;21.60;99940.00;;;;5106238;28;20441;-77
2022/03/06 09:05:21;;;;;;;0.00;0.00;;;;;21.60;99966.00;;;;5106739;28;20044;-76
2022/03/06 09:07:51;;;;;;;1.00;1.00;;;;;21.60;99953.00;;;;5107786;28;20040;-77
2022/03/06 09:10:22;;;;;;;0.00;0.00;;;;;21.60;99964.00;;;;5105377;28;20055;-75
2022/03/06 09:12:52;;;;;;;0.00;0.00;;;;;21.60;99973.00;;;;5105310;28;20075;-76
2022/03/06 09:15:23;;;;;;;0.00;0.00;;;;;21.60;99967.00;;;;5105644;28;20514;-76
2022/03/06 09:17:54;;;;;;;0.00;0.00;;;;;21.70;99978.00;;;;5105926;28;20040;-76
2022/03/06 09:20:24;;;;;;;0.00;0.00;;;;;21.60;99955.00;;;;5106394;28;20075;-76
2022/03/06 09:22:54;;;;;;;0.00;0.00;;;;;21.60;99973.00;;;;5104735;28;20063;-75
2022/03/06 09:25:23;;;;;;;0.00;0.00;;;;;21.70;99976.00;;;;5106036;28;20310;-75
2022/03/06 09:27:53;;;;;;;0.00;0.00;;;;;21.70;99980.00;;;;5105851;28;20032;-78
2022/03/06 09:30:23;;;;;;;0.00;0.00;;;;;21.80;99978.00;;;;5106100;28;20036;-75
2022/03/06 09:32:52;;;;;;;0.00;0.00;;;;;21.80;99988.00;;;;5105847;28;20044;-77
2022/03/06 09:35:22;;;;;;;0.00;0.00;;;;;21.90;99983.00;;;;5105470;28;20536;-76
2022/03/06 09:37:51;;;;;;;0.00;0.00;;;;;22.00;99986.00;;;;5105830;28;20402;-75
2022/03/06 09:40:21;;;;;;;0.00;0.00;;;;;22.10;99991.00;;;;5109624;28;20050;-76
2022/03/06 09:42:51;;;;;;;0.00;0.00;;;;;22.10;100003.00;;;;5108090;28;20110;-76
2022/03/06 09:45:23;;;;;;;0.00;0.00;;;;;22.20;100004.00;;;;5109772;28;20036;-76
2022/03/06 09:47:53;;;;;;;0.00;0.00;;;;;22.30;99996.00;;;;5111206;28;20047;-77
2022/03/06 09:50:24;;;;;;;0.00;0.00;;;;;22.30;100005.00;;;;5108329;28;20513;-76
2022/03/06 09:52:53;;;;;;;0.00;0.00;;;;;22.40;100021.00;;;;5107804;28;20513;-76
2022/03/06 09:55:23;;;;;;;0.00;0.00;;;;;22.50;100006.00;;;;5109354;28;20414;-76
2022/03/06 09:57:57;;;;;;;0.00;0.00;;;;;22.50;100027.00;;;;5108940;28;20043;-77
2022/03/06 10:00:32;;;;;;;0.00;0.00;;;;;22.70;100011.00;;;;5107028;28;20043;-75
2022/03/06 10:03:03;;;;;;;0.00;0.00;;;;;22.80;100004.00;;;;5109509;28;20088;-77
2022/03/06 10:05:37;;;;;;;0.00;0.00;;;;;22.90;100021.00;;;;5109947;28;20154;-75
2022/03/06 10:08:22;;;;;;;0.00;0.00;;;;;23.00;100015.00;;;;5107217;28;20089;-75
2022/03/06 10:11:06;;;;;;;0.00;0.00;;;;;23.10;100031.00;;;;5109577;28;20521;-76
2022/03/06 10:13:44;;;;;;;0.00;0.00;;;;;23.20;100019.00;;;;5107353;28;20054;-76
2022/03/06 10:16:19;;;;;;;0.00;0.00;;;;;23.20;100022.00;;;;5109611;28;20050;-77
2022/03/06 10:18:50;;;;;;;0.00;0.00;;;;;23.30;100039.00;;;;5108133;28;20544;-76
2022/03/06 10:21:32;;;;;;;0.00;0.00;;;;;23.40;100049.00;;;;5108411;28;20035;-77
2022/03/06 10:24:08;;;;;;;0.00;0.00;;;;;23.60;100024.00;;;;5109426;28;20075;-76
2022/03/06 10:26:38;;;;;;;0.00;0.00;;;;;23.90;100017.00;;;;5108731;28;20105;-79
2022/03/06 10:29:12;;;;;;;0.00;0.00;;;;;24.60;99987.00;;;;5108997;28;20113;-75
2022/03/06 10:31:58;;;;;;;0.00;0.00;;;;;25.40;100026.00;;;;5108841;28;20040;-76
2022/03/06 10:34:39;;;;;;;0.00;0.00;;;;;25.50;100022.00;;;;5106834;28;20052;-77
2022/03/06 10:37:13;;;;;;;0.00;0.00;;;;;27.80;99960.00;;;;5108565;28;20062;-77
2022/03/06 10:39:48;;;;;;;0.00;0.00;;;;;28.90;99984.00;;;;5107498;27;20602;-77
2022/03/06 10:42:22;;;;;;;0.35;0.35;;;;;27.50;100013.00;;;;5108743;28;20085;-79
2022/03/06 10:44:52;;;;;;;0.00;0.00;;;;;28.00;99974.00;;;;5108705;28;20586;-76
2022/03/06 10:47:22;;;;;;;0.00;0.00;;;;;28.30;100041.00;;;;5108496;28;20448;-76
2022/03/06 10:50:02;;;;;;;0.00;0.00;;;;;29.30;99979.00;;;;5107647;28;20044;-78
2022/03/06 10:52:44;;;;;;;0.00;0.00;;;;;28.90;99969.00;;;;5108474;28;20391;-77
2022/03/06 10:55:13;;;;;;;0.00;0.00;;;;;29.10;99970.00;;;;5108133;28;20506;-78
2022/03/06 10:57:56;;;;;;;0.00;0.00;;;;;29.00;99985.00;;;;5108405;28;20051;-78
2022/03/06 11:00:26;;;;;;;0.00;0.00;;;;;31.80;99911.00;;;;5107984;28;20397;-76
2022/03/06 11:02:57;;;;;;;;;;;;;33.80;99869.00;;;;5107373;28;20048;-77
2022/03/06 11:05:28;;;;;;;0.10;0.10;;;;;35.40;99862.00;;;;5108189;28;19955;-77
2022/03/06 11:07:58;;;;;;;0.00;0.00;;;;;36.20;99874.00;;;;5106956;28;20143;-79
2022/03/06 11:10:28;;;;;;;0.00;0.00;;;;;36.90;99889.00;;;;5106676;28;20036;-75
2022/03/06 11:12:58;;;;;;;0.00;0.00;;;;;37.00;99897.00;;;;5108318;28;20035;-76
2022/03/06 11:15:27;;;;;;;0.00;0.00;;;;;36.90;99903.00;;;;5106820;28;20564;-77
2022/03/06 11:18:01;;;;;;;0.00;0.00;;;;;33.70;99954.00;;;;5108489;27;20119;-76
2022/03/06 11:20:31;;;;;;;0.00;0.00;;;;;35.90;99916.00;;;;5107819;28;20550;-76
2022/03/06 11:23:27;;;;;;;0.00;0.00;;;;;33.10;99981.00;;;;5106488;28;20066;-77
2022/03/06 11:26:03;;;;;;;0.00;0.00;;;;;32.80;99954.00;;;;5107592;28;20744;-76
2022/03/06 11:28:53;;;;;;;0.00;0.00;;;;;33.90;99931.00;;;;5106740;28;20036;-77
2022/03/06 11:31:24;;;;;;;0.00;0.00;;;;;34.50;99957.00;;;;5106969;28;20044;-77
2022/03/06 11:33:56;;;;;;;0.00;0.00;;;;;35.40;99954.00;;;;5107821;28;20063;-77
2022/03/06 11:36:27;;;;;;;0.30;0.30;;;;;35.30;99964.00;;;;5106895;28;20039;-78
2022/03/06 11:39:01;;;;;;;0.00;0.00;;;;;36.60;99957.00;;;;5106643;28;20039;-76
2022/03/06 11:41:37;;;;;;;0.00;0.00;;;;;33.90;99989.00;;;;5105586;28;20052;-75
2022/03/06 11:44:36;;;;;;;0.00;0.00;;;;;33.60;100006.00;;;;5107114;28;20100;-76
2022/03/06 11:47:38;;;;;;;0.00;0.00;;;;;32.40;100021.00;;;;5106904;28;20502;-77
2022/03/06 11:50:21;;;;;;;0.00;0.00;;;;;31.80;100101.00;;;;5106083;28;20060;-78
2022/03/06 11:52:51;;;;;;;0.00;0.00;;;;;31.00;100107.00;;;;5107132;28;20122;-76
2022/03/06 11:55:32;;;;;;;0.00;0.00;;;;;30.70;100002.00;;;;5107865;28;20566;-77
2022/03/06 11:58:02;;;;;;;0.65;0.10;;;;;34.20;100091.00;;;;5108147;28;20452;-76
2022/03/06 12:00:37;;;;;;;0.00;0.00;;;;;30.80;100089.00;;;;5106386;28;20086;-79
2022/03/06 12:03:07;;;;;;;0.10;0.10;;;;;30.20;100101.00;;;;5106641;28;20468;-77
2022/03/06 12:05:47;;;;;;;0.00;0.00;;;;;29.80;100112.00;;;;5107172;28;20411;-77
2022/03/06 12:08:17;;;;;;;0.10;0.10;;;;;29.60;100121.00;;;;5106848;28;20040;-77
2022/03/06 12:10:48;;;;;;;0.47;0.10;;;;;29.10;100117.00;;;;5107173;28;20039;-77
2022/03/06 12:13:17;;;;;;;0.00;0.00;;;;;29.80;100142.00;;;;5107125;28;20043;-77
2022/03/06 12:16:08;;;;;;;0.50;0.20;;;;;28.60;100176.00;;;;5105768;28;20051;-76
2022/03/06 12:18:38;;;;;;;;;;;;;27.70;100171.00;;;;5105153;28;20544;-76
2022/03/06 12:21:22;;;;;;;0.03;0.03;;;;;27.10;100190.00;;;;5108123;28;19931;-78
2022/03/06 12:24:10;;;;;;;0.00;0.00;;;;;26.50;100187.00;;;;5105992;28;20158;-79
2022/03/06 12:26:45;;;;;;;0.00;0.00;;;;;26.00;100183.00;;;;5108106;28;20043;-79
2022/03/06 12:29:46;;;;;;;0.25;0.13;;;;;25.90;100195.00;;;;5105717;28;20134;-81
2022/03/06 12:32:27;;;;;;;0.00;0.00;;;;;25.70;100176.00;;;;5108277;28;20039;-79
2022/03/06 12:35:02;;;;;;;0.10;0.10;;;;;25.60;100173.00;;;;5106403;28;20067;-80
2022/03/06 12:37:35;;;;;;;0.00;0.00;;;;;25.60;100191.00;;;;5107652;28;20035;-79